sensor_id;sensor_type;location;lat;lon;timestamp;P1;durP1;ratioP1;P2;durP2;ratioP2
3443;SDS011;1736;52.068;6.968;2022-08-02T00:01:44;6.93;;;5.07;;
3443;SDS011;1736;52.068;6.968;2022-08-02T00:04:11;14.00;;;4.80;;
3443;SDS011;1736;52.068;6.968;2022-08-02T00:06:38;9.53;;;5.10;;
3443;SDS011;1736;52.068;6.968;2022-08-02T00:09:05;7.33;;;4.80;;
3443;SDS011;1736;52.068;6.968;2022-08-02T00:11:32;5.87;;;4.70;;
3443;SDS011;1736;52.068;6.968;2022-08-02T00:13:59;8.37;;;5.27;;
3443;SDS011;1736;52.068;6.968;2022-08-02T00:16:25;8.40;;;4.30;;
3443;SDS011;1736;52.068;6.968;2022-08-02T00:18:52;8.43;;;5.17;;
3443;SDS011;1736;52.068;6.968;2022-08-02T00:21:18;6.70;;;5.10;;
3443;SDS011;1736;52.068;6.968;2022-08-02T00:23:45;5.30;;;4.80;;
3443;SDS011;1736;52.068;6.968;2022-08-02T00:26:13;7.13;;;3.87;;
3443;SDS011;1736;52.068;6.968;2022-08-02T00:28:39;5.20;;;4.60;;
3443;SDS011;1736;52.068;6.968;2022-08-02T00:31:06;15.30;;;5.33;;
3443;SDS011;1736;52.068;6.968;2022-08-02T00:33:32;6.63;;;4.30;;
3443;SDS011;1736;52.068;6.968;2022-08-02T00:35:59;6.00;;;4.67;;
3443;SDS011;1736;52.068;6.968;2022-08-02T00:38:25;7.70;;;5.03;;
3443;SDS011;1736;52.068;6.968;2022-08-02T00:40:52;7.23;;;4.43;;
3443;SDS011;1736;52.068;6.968;2022-08-02T00:43:20;5.90;;;3.67;;
3443;SDS011;1736;52.068;6.968;2022-08-02T00:45:47;3.83;;;3.43;;
3443;SDS011;1736;52.068;6.968;2022-08-02T00:48:13;8.23;;;4.10;;
3443;SDS011;1736;52.068;6.968;2022-08-02T00:50:40;4.97;;;4.10;;
3443;SDS011;1736;52.068;6.968;2022-08-02T00:53:07;4.97;;;3.67;;
3443;SDS011;1736;52.068;6.968;2022-08-02T00:55:34;6.10;;;3.60;;
3443;SDS011;1736;52.068;6.968;2022-08-02T00:58:02;3.97;;;3.57;;
3443;SDS011;1736;52.068;6.968;2022-08-02T01:00:30;4.43;;;3.83;;
3443;SDS011;1736;52.068;6.968;2022-08-02T01:02:57;4.30;;;3.67;;
3443;SDS011;1736;52.068;6.968;2022-08-02T01:05:23;5.17;;;3.80;;
3443;SDS011;1736;52.068;6.968;2022-08-02T01:07:50;8.53;;;3.67;;
3443;SDS011;1736;52.068;6.968;2022-08-02T01:10:16;3.90;;;3.43;;
3443;SDS011;1736;52.068;6.968;2022-08-02T01:12:43;4.70;;;3.90;;
3443;SDS011;1736;52.068;6.968;2022-08-02T01:15:11;4.20;;;3.53;;
3443;SDS011;1736;52.068;6.968;2022-08-02T01:17:43;5.57;;;4.07;;
3443;SDS011;1736;52.068;6.968;2022-08-02T01:20:18;6.03;;;4.03;;
3443;SDS011;1736;52.068;6.968;2022-08-02T01:23:04;5.57;;;3.57;;
3443;SDS011;1736;52.068;6.968;2022-08-02T01:25:52;4.40;;;4.00;;
3443;SDS011;1736;52.068;6.968;2022-08-02T01:28:31;4.80;;;4.07;;
3443;SDS011;1736;52.068;6.968;2022-08-02T01:31:01;4.43;;;3.63;;
3443;SDS011;1736;52.068;6.968;2022-08-02T01:33:34;8.43;;;4.13;;
3443;SDS011;1736;52.068;6.968;2022-08-02T01:36:05;4.30;;;3.90;;
3443;SDS011;1736;52.068;6.968;2022-08-02T01:38:37;4.20;;;3.60;;
3443;SDS011;1736;52.068;6.968;2022-08-02T01:41:07;3.90;;;3.60;;
3443;SDS011;1736;52.068;6.968;2022-08-02T01:43:38;5.90;;;3.70;;
3443;SDS011;1736;52.068;6.968;2022-08-02T01:46:07;9.77;;;3.80;;
3443;SDS011;1736;52.068;6.968;2022-08-02T01:48:36;6.73;;;3.73;;
3443;SDS011;1736;52.068;6.968;2022-08-02T01:51:05;7.93;;;4.10;;
3443;SDS011;1736;52.068;6.968;2022-08-02T01:53:34;4.10;;;3.70;;
3443;SDS011;1736;52.068;6.968;2022-08-02T01:56:00;7.50;;;4.10;;
3443;SDS011;1736;52.068;6.968;2022-08-02T01:58:30;4.47;;;3.50;;
3443;SDS011;1736;52.068;6.968;2022-08-02T02:01:02;7.00;;;3.40;;
3443;SDS011;1736;52.068;6.968;2022-08-02T02:03:31;4.47;;;3.43;;
3443;SDS011;1736;52.068;6.968;2022-08-02T02:06:00;4.77;;;3.37;;
3443;SDS011;1736;52.068;6.968;2022-08-02T02:08:30;4.23;;;3.70;;
3443;SDS011;1736;52.068;6.968;2022-08-02T02:10:59;5.70;;;3.63;;
3443;SDS011;1736;52.068;6.968;2022-08-02T02:13:27;6.07;;;3.53;;
3443;SDS011;1736;52.068;6.968;2022-08-02T02:15:56;4.30;;;3.90;;
3443;SDS011;1736;52.068;6.968;2022-08-02T02:18:28;8.03;;;4.40;;
3443;SDS011;1736;52.068;6.968;2022-08-02T02:20:55;7.33;;;4.33;;
3443;SDS011;1736;52.068;6.968;2022-08-02T02:23:23;8.00;;;4.57;;
3443;SDS011;1736;52.068;6.968;2022-08-02T02:25:49;4.70;;;3.70;;
3443;SDS011;1736;52.068;6.968;2022-08-02T02:28:20;7.40;;;4.53;;
3443;SDS011;1736;52.068;6.968;2022-08-02T02:30:49;7.57;;;4.20;;
3443;SDS011;1736;52.068;6.968;2022-08-02T02:33:17;4.87;;;4.37;;
3443;SDS011;1736;52.068;6.968;2022-08-02T02:35:48;9.43;;;4.40;;
3443;SDS011;1736;52.068;6.968;2022-08-02T02:38:17;8.43;;;5.70;;
3443;SDS011;1736;52.068;6.968;2022-08-02T02:40:45;6.40;;;4.50;;
3443;SDS011;1736;52.068;6.968;2022-08-02T02:43:12;5.70;;;4.60;;
3443;SDS011;1736;52.068;6.968;2022-08-02T02:45:41;10.20;;;6.93;;
3443;SDS011;1736;52.068;6.968;2022-08-02T02:48:10;6.60;;;4.97;;
3443;SDS011;1736;52.068;6.968;2022-08-02T02:50:38;6.07;;;4.83;;
3443;SDS011;1736;52.068;6.968;2022-08-02T02:53:08;6.00;;;4.80;;
3443;SDS011;1736;52.068;6.968;2022-08-02T02:55:35;5.47;;;4.20;;
3443;SDS011;1736;52.068;6.968;2022-08-02T02:58:03;4.97;;;4.40;;
3443;SDS011;1736;52.068;6.968;2022-08-02T03:00:30;5.37;;;4.87;;
3443;SDS011;1736;52.068;6.968;2022-08-02T03:03:14;9.30;;;4.77;;
3443;SDS011;1736;52.068;6.968;2022-08-02T03:05:42;7.77;;;5.10;;
3443;SDS011;1736;52.068;6.968;2022-08-02T03:08:10;6.63;;;5.60;;
3443;SDS011;1736;52.068;6.968;2022-08-02T03:10:37;12.20;;;6.17;;
3443;SDS011;1736;52.068;6.968;2022-08-02T03:13:04;8.03;;;5.77;;
3443;SDS011;1736;52.068;6.968;2022-08-02T03:15:31;6.10;;;5.47;;
3443;SDS011;1736;52.068;6.968;2022-08-02T03:17:57;7.80;;;6.00;;
3443;SDS011;1736;52.068;6.968;2022-08-02T03:20:24;8.03;;;5.93;;
3443;SDS011;1736;52.068;6.968;2022-08-02T03:22:50;6.90;;;6.00;;
3443;SDS011;1736;52.068;6.968;2022-08-02T03:25:18;7.50;;;5.70;;
3443;SDS011;1736;52.068;6.968;2022-08-02T03:27:45;9.07;;;5.80;;
3443;SDS011;1736;52.068;6.968;2022-08-02T03:30:12;6.33;;;5.20;;
3443;SDS011;1736;52.068;6.968;2022-08-02T03:32:40;6.60;;;5.17;;
3443;SDS011;1736;52.068;6.968;2022-08-02T03:35:09;7.80;;;5.23;;
3443;SDS011;1736;52.068;6.968;2022-08-02T03:37:38;9.70;;;5.47;;
3443;SDS011;1736;52.068;6.968;2022-08-02T03:40:06;7.80;;;5.97;;
3443;SDS011;1736;52.068;6.968;2022-08-02T03:42:37;7.50;;;5.70;;
3443;SDS011;1736;52.068;6.968;2022-08-02T03:45:05;6.93;;;4.77;;
3443;SDS011;1736;52.068;6.968;2022-08-02T03:47:35;7.17;;;5.00;;
3443;SDS011;1736;52.068;6.968;2022-08-02T03:50:03;7.33;;;4.80;;
3443;SDS011;1736;52.068;6.968;2022-08-02T03:52:30;7.60;;;5.23;;
3443;SDS011;1736;52.068;6.968;2022-08-02T03:54:58;6.80;;;5.03;;
3443;SDS011;1736;52.068;6.968;2022-08-02T03:57:25;6.20;;;4.90;;
3443;SDS011;1736;52.068;6.968;2022-08-02T03:59:53;6.80;;;5.00;;
3443;SDS011;1736;52.068;6.968;2022-08-02T04:02:19;5.53;;;5.03;;
3443;SDS011;1736;52.068;6.968;2022-08-02T04:04:46;5.70;;;4.67;;
3443;SDS011;1736;52.068;6.968;2022-08-02T04:07:12;6.70;;;5.57;;
3443;SDS011;1736;52.068;6.968;2022-08-02T04:09:39;5.90;;;5.00;;
3443;SDS011;1736;52.068;6.968;2022-08-02T04:12:06;9.50;;;5.37;;
3443;SDS011;1736;52.068;6.968;2022-08-02T04:14:32;6.27;;;5.30;;
3443;SDS011;1736;52.068;6.968;2022-08-02T04:17:02;6.87;;;5.07;;
3443;SDS011;1736;52.068;6.968;2022-08-02T04:19:33;7.20;;;4.93;;
3443;SDS011;1736;52.068;6.968;2022-08-02T04:22:03;6.70;;;5.07;;
3443;SDS011;1736;52.068;6.968;2022-08-02T04:24:33;8.13;;;4.90;;
3443;SDS011;1736;52.068;6.968;2022-08-02T04:27:03;6.00;;;4.87;;
3443;SDS011;1736;52.068;6.968;2022-08-02T04:29:31;6.40;;;5.13;;
3443;SDS011;1736;52.068;6.968;2022-08-02T04:31:58;7.00;;;5.10;;
3443;SDS011;1736;52.068;6.968;2022-08-02T04:34:26;12.87;;;5.50;;
3443;SDS011;1736;52.068;6.968;2022-08-02T04:36:53;6.13;;;5.20;;
3443;SDS011;1736;52.068;6.968;2022-08-02T04:39:21;7.67;;;5.50;;
3443;SDS011;1736;52.068;6.968;2022-08-02T04:41:47;10.33;;;5.40;;
3443;SDS011;1736;52.068;6.968;2022-08-02T04:44:14;9.87;;;5.70;;
3443;SDS011;1736;52.068;6.968;2022-08-02T04:46:40;9.73;;;6.17;;
3443;SDS011;1736;52.068;6.968;2022-08-02T04:49:08;7.20;;;6.07;;
3443;SDS011;1736;52.068;6.968;2022-08-02T04:51:36;6.93;;;5.50;;
3443;SDS011;1736;52.068;6.968;2022-08-02T04:54:04;13.77;;;5.83;;
3443;SDS011;1736;52.068;6.968;2022-08-02T04:56:32;6.83;;;5.70;;
3443;SDS011;1736;52.068;6.968;2022-08-02T04:58:58;11.47;;;6.40;;
3443;SDS011;1736;52.068;6.968;2022-08-02T05:01:25;8.43;;;6.30;;
3443;SDS011;1736;52.068;6.968;2022-08-02T05:03:52;7.60;;;5.57;;
3443;SDS011;1736;52.068;6.968;2022-08-02T05:06:18;7.40;;;6.53;;
3443;SDS011;1736;52.068;6.968;2022-08-02T05:08:47;11.63;;;7.50;;
3443;SDS011;1736;52.068;6.968;2022-08-02T05:11:13;8.50;;;6.30;;
3443;SDS011;1736;52.068;6.968;2022-08-02T05:13:40;9.37;;;5.87;;
3443;SDS011;1736;52.068;6.968;2022-08-02T05:16:07;9.10;;;5.80;;
3443;SDS011;1736;52.068;6.968;2022-08-02T05:18:33;13.60;;;5.97;;
3443;SDS011;1736;52.068;6.968;2022-08-02T05:21:00;8.37;;;6.07;;
3443;SDS011;1736;52.068;6.968;2022-08-02T05:23:27;7.30;;;5.10;;
3443;SDS011;1736;52.068;6.968;2022-08-02T05:25:55;14.07;;;5.60;;
3443;SDS011;1736;52.068;6.968;2022-08-02T05:28:21;9.10;;;5.03;;
3443;SDS011;1736;52.068;6.968;2022-08-02T05:30:49;8.07;;;5.70;;
3443;SDS011;1736;52.068;6.968;2022-08-02T05:33:15;9.30;;;5.37;;
3443;SDS011;1736;52.068;6.968;2022-08-02T05:35:42;5.37;;;4.83;;
3443;SDS011;1736;52.068;6.968;2022-08-02T05:38:08;10.90;;;5.13;;
3443;SDS011;1736;52.068;6.968;2022-08-02T05:40:35;7.40;;;4.90;;
3443;SDS011;1736;52.068;6.968;2022-08-02T05:43:05;6.47;;;4.73;;
3443;SDS011;1736;52.068;6.968;2022-08-02T05:45:36;9.03;;;5.00;;
3443;SDS011;1736;52.068;6.968;2022-08-02T05:48:03;5.73;;;5.00;;
3443;SDS011;1736;52.068;6.968;2022-08-02T05:50:30;4.97;;;4.50;;
3443;SDS011;1736;52.068;6.968;2022-08-02T05:52:59;6.60;;;5.10;;
3443;SDS011;1736;52.068;6.968;2022-08-02T05:55:32;9.57;;;5.53;;
3443;SDS011;1736;52.068;6.968;2022-08-02T05:58:05;9.90;;;6.03;;
3443;SDS011;1736;52.068;6.968;2022-08-02T06:00:38;6.93;;;5.37;;
3443;SDS011;1736;52.068;6.968;2022-08-02T06:03:13;8.47;;;5.20;;
3443;SDS011;1736;52.068;6.968;2022-08-02T06:05:47;6.47;;;5.20;;
3443;SDS011;1736;52.068;6.968;2022-08-02T06:08:16;9.80;;;5.70;;
3443;SDS011;1736;52.068;6.968;2022-08-02T06:10:45;8.57;;;6.07;;
3443;SDS011;1736;52.068;6.968;2022-08-02T06:13:15;7.53;;;4.90;;
3443;SDS011;1736;52.068;6.968;2022-08-02T06:15:42;7.17;;;5.17;;
3443;SDS011;1736;52.068;6.968;2022-08-02T06:18:09;7.13;;;5.60;;
3443;SDS011;1736;52.068;6.968;2022-08-02T06:20:35;6.53;;;5.30;;
3443;SDS011;1736;52.068;6.968;2022-08-02T06:23:02;13.80;;;5.80;;
3443;SDS011;1736;52.068;6.968;2022-08-02T06:25:30;8.13;;;5.20;;
3443;SDS011;1736;52.068;6.968;2022-08-02T06:27:58;9.50;;;5.30;;
3443;SDS011;1736;52.068;6.968;2022-08-02T06:30:28;6.10;;;4.33;;
3443;SDS011;1736;52.068;6.968;2022-08-02T06:32:55;9.27;;;4.83;;
3443;SDS011;1736;52.068;6.968;2022-08-02T06:35:22;10.90;;;7.43;;
3443;SDS011;1736;52.068;6.968;2022-08-02T06:37:51;9.90;;;5.77;;
3443;SDS011;1736;52.068;6.968;2022-08-02T06:40:23;12.93;;;5.13;;
3443;SDS011;1736;52.068;6.968;2022-08-02T06:42:56;10.07;;;5.33;;
3443;SDS011;1736;52.068;6.968;2022-08-02T06:45:32;6.93;;;5.13;;
3443;SDS011;1736;52.068;6.968;2022-08-02T06:47:59;6.00;;;5.40;;
3443;SDS011;1736;52.068;6.968;2022-08-02T06:50:26;8.60;;;4.90;;
3443;SDS011;1736;52.068;6.968;2022-08-02T06:52:53;5.40;;;4.43;;
3443;SDS011;1736;52.068;6.968;2022-08-02T06:55:19;6.83;;;4.70;;
3443;SDS011;1736;52.068;6.968;2022-08-02T06:57:46;8.00;;;5.27;;
3443;SDS011;1736;52.068;6.968;2022-08-02T07:00:12;7.60;;;4.63;;
3443;SDS011;1736;52.068;6.968;2022-08-02T07:02:40;7.90;;;5.30;;
3443;SDS011;1736;52.068;6.968;2022-08-02T07:05:07;11.30;;;5.60;;
3443;SDS011;1736;52.068;6.968;2022-08-02T07:07:34;8.40;;;5.63;;
3443;SDS011;1736;52.068;6.968;2022-08-02T07:10:01;6.77;;;4.60;;
3443;SDS011;1736;52.068;6.968;2022-08-02T07:12:28;7.80;;;5.17;;
3443;SDS011;1736;52.068;6.968;2022-08-02T07:14:56;8.60;;;4.50;;
3443;SDS011;1736;52.068;6.968;2022-08-02T07:17:23;6.80;;;5.57;;
3443;SDS011;1736;52.068;6.968;2022-08-02T07:19:51;9.20;;;5.43;;
3443;SDS011;1736;52.068;6.968;2022-08-02T07:22:17;11.93;;;5.40;;
3443;SDS011;1736;52.068;6.968;2022-08-02T07:24:47;7.43;;;5.67;;
3443;SDS011;1736;52.068;6.968;2022-08-02T07:27:13;9.07;;;5.50;;
3443;SDS011;1736;52.068;6.968;2022-08-02T07:29:40;7.43;;;5.10;;
3443;SDS011;1736;52.068;6.968;2022-08-02T07:32:07;7.90;;;6.00;;
3443;SDS011;1736;52.068;6.968;2022-08-02T07:34:33;11.83;;;5.20;;
3443;SDS011;1736;52.068;6.968;2022-08-02T07:37:01;7.20;;;5.20;;
3443;SDS011;1736;52.068;6.968;2022-08-02T07:39:28;9.37;;;5.77;;
3443;SDS011;1736;52.068;6.968;2022-08-02T07:41:54;13.20;;;5.83;;
3443;SDS011;1736;52.068;6.968;2022-08-02T07:44:21;11.23;;;5.87;;
3443;SDS011;1736;52.068;6.968;2022-08-02T07:46:47;8.73;;;5.37;;
3443;SDS011;1736;52.068;6.968;2022-08-02T07:49:14;9.20;;;5.30;;
3443;SDS011;1736;52.068;6.968;2022-08-02T07:51:42;11.43;;;5.90;;
3443;SDS011;1736;52.068;6.968;2022-08-02T07:54:10;14.90;;;6.90;;
3443;SDS011;1736;52.068;6.968;2022-08-02T07:56:37;10.57;;;5.50;;
3443;SDS011;1736;52.068;6.968;2022-08-02T07:59:03;8.60;;;5.67;;
3443;SDS011;1736;52.068;6.968;2022-08-02T08:01:30;6.13;;;4.53;;
3443;SDS011;1736;52.068;6.968;2022-08-02T08:03:56;7.50;;;5.90;;
3443;SDS011;1736;52.068;6.968;2022-08-02T08:06:23;8.30;;;5.40;;
3443;SDS011;1736;52.068;6.968;2022-08-02T08:08:49;6.80;;;5.13;;
3443;SDS011;1736;52.068;6.968;2022-08-02T08:11:17;6.60;;;5.23;;
3443;SDS011;1736;52.068;6.968;2022-08-02T08:13:43;12.17;;;6.00;;
3443;SDS011;1736;52.068;6.968;2022-08-02T08:16:10;9.57;;;5.03;;
3443;SDS011;1736;52.068;6.968;2022-08-02T08:18:37;9.33;;;5.40;;
3443;SDS011;1736;52.068;6.968;2022-08-02T08:21:03;10.20;;;5.10;;
3443;SDS011;1736;52.068;6.968;2022-08-02T08:23:30;6.37;;;4.50;;
3443;SDS011;1736;52.068;6.968;2022-08-02T08:25:57;6.73;;;4.90;;
3443;SDS011;1736;52.068;6.968;2022-08-02T08:28:24;5.67;;;4.40;;
3443;SDS011;1736;52.068;6.968;2022-08-02T08:30:51;8.47;;;4.13;;
3443;SDS011;1736;52.068;6.968;2022-08-02T08:33:17;8.47;;;4.17;;
3443;SDS011;1736;52.068;6.968;2022-08-02T08:35:44;7.13;;;3.93;;
3443;SDS011;1736;52.068;6.968;2022-08-02T08:38:11;6.50;;;3.43;;
3443;SDS011;1736;52.068;6.968;2022-08-02T08:40:37;5.83;;;3.53;;
3443;SDS011;1736;52.068;6.968;2022-08-02T08:43:06;6.70;;;3.67;;
3443;SDS011;1736;52.068;6.968;2022-08-02T08:45:34;3.77;;;3.37;;
3443;SDS011;1736;52.068;6.968;2022-08-02T08:48:03;3.83;;;3.27;;
3443;SDS011;1736;52.068;6.968;2022-08-02T08:50:33;6.33;;;3.63;;
3443;SDS011;1736;52.068;6.968;2022-08-02T08:53:01;5.93;;;2.70;;
3443;SDS011;1736;52.068;6.968;2022-08-02T08:55:29;3.33;;;3.03;;
3443;SDS011;1736;52.068;6.968;2022-08-02T08:57:58;5.23;;;2.83;;
3443;SDS011;1736;52.068;6.968;2022-08-02T09:00:26;5.60;;;2.87;;
3443;SDS011;1736;52.068;6.968;2022-08-02T09:02:56;7.67;;;3.23;;
3443;SDS011;1736;52.068;6.968;2022-08-02T09:05:23;5.10;;;2.83;;
3443;SDS011;1736;52.068;6.968;2022-08-02T09:07:51;4.23;;;2.80;;
3443;SDS011;1736;52.068;6.968;2022-08-02T09:10:30;9.40;;;2.90;;
3443;SDS011;1736;52.068;6.968;2022-08-02T09:13:09;3.77;;;2.67;;
3443;SDS011;1736;52.068;6.968;2022-08-02T09:15:40;4.20;;;2.60;;
3443;SDS011;1736;52.068;6.968;2022-08-02T09:18:09;2.70;;;2.50;;
3443;SDS011;1736;52.068;6.968;2022-08-02T09:20:50;4.83;;;2.60;;
3443;SDS011;1736;52.068;6.968;2022-08-02T09:23:17;2.63;;;2.30;;
3443;SDS011;1736;52.068;6.968;2022-08-02T09:25:53;4.20;;;2.50;;
3443;SDS011;1736;52.068;6.968;2022-08-02T09:28:24;5.50;;;2.63;;
3443;SDS011;1736;52.068;6.968;2022-08-02T09:30:51;3.83;;;3.13;;
3443;SDS011;1736;52.068;6.968;2022-08-02T09:33:24;2.97;;;2.50;;
3443;SDS011;1736;52.068;6.968;2022-08-02T09:35:56;4.30;;;3.10;;
3443;SDS011;1736;52.068;6.968;2022-08-02T09:38:25;7.30;;;2.93;;
3443;SDS011;1736;52.068;6.968;2022-08-02T09:40:51;5.90;;;3.30;;
3443;SDS011;1736;52.068;6.968;2022-08-02T09:43:18;3.13;;;2.83;;
3443;SDS011;1736;52.068;6.968;2022-08-02T09:45:45;5.00;;;3.30;;
3443;SDS011;1736;52.068;6.968;2022-08-02T09:48:12;4.47;;;3.10;;
3443;SDS011;1736;52.068;6.968;2022-08-02T09:50:40;5.00;;;3.00;;
3443;SDS011;1736;52.068;6.968;2022-08-02T09:53:09;9.73;;;3.80;;
3443;SDS011;1736;52.068;6.968;2022-08-02T09:55:37;7.57;;;4.10;;
3443;SDS011;1736;52.068;6.968;2022-08-02T09:58:15;7.60;;;4.73;;
3443;SDS011;1736;52.068;6.968;2022-08-02T10:00:50;6.23;;;4.30;;
3443;SDS011;1736;52.068;6.968;2022-08-02T10:03:18;6.87;;;5.23;;
3443;SDS011;1736;52.068;6.968;2022-08-02T10:05:47;9.17;;;4.70;;
3443;SDS011;1736;52.068;6.968;2022-08-02T10:08:15;6.67;;;3.77;;
3443;SDS011;1736;52.068;6.968;2022-08-02T10:10:42;10.80;;;4.43;;
3443;SDS011;1736;52.068;6.968;2022-08-02T10:13:09;4.93;;;4.40;;
3443;SDS011;1736;52.068;6.968;2022-08-02T10:15:36;6.07;;;4.80;;
3443;SDS011;1736;52.068;6.968;2022-08-02T10:18:03;6.97;;;4.83;;
3443;SDS011;1736;52.068;6.968;2022-08-02T10:20:31;4.73;;;4.23;;
3443;SDS011;1736;52.068;6.968;2022-08-02T10:23:10;6.70;;;4.40;;
3443;SDS011;1736;52.068;6.968;2022-08-02T10:25:39;3.70;;;3.40;;
3443;SDS011;1736;52.068;6.968;2022-08-02T10:28:07;4.97;;;4.57;;
3443;SDS011;1736;52.068;6.968;2022-08-02T10:30:35;7.50;;;5.37;;
3443;SDS011;1736;52.068;6.968;2022-08-02T10:33:04;5.97;;;5.37;;
3443;SDS011;1736;52.068;6.968;2022-08-02T10:35:34;8.07;;;4.70;;
3443;SDS011;1736;52.068;6.968;2022-08-02T10:38:05;4.13;;;3.60;;
3443;SDS011;1736;52.068;6.968;2022-08-02T10:40:48;10.60;;;4.17;;
3443;SDS011;1736;52.068;6.968;2022-08-02T10:46:31;6.30;;;4.27;;
3443;SDS011;1736;52.068;6.968;2022-08-02T10:49:00;7.73;;;5.73;;
3443;SDS011;1736;52.068;6.968;2022-08-02T10:51:55;9.20;;;4.40;;
3443;SDS011;1736;52.068;6.968;2022-08-02T10:54:23;6.60;;;4.73;;
3443;SDS011;1736;52.068;6.968;2022-08-02T10:56:53;6.80;;;4.53;;
3443;SDS011;1736;52.068;6.968;2022-08-02T10:59:24;5.47;;;4.50;;
3443;SDS011;1736;52.068;6.968;2022-08-02T11:01:52;6.53;;;3.87;;
3443;SDS011;1736;52.068;6.968;2022-08-02T11:04:27;5.87;;;4.30;;
3443;SDS011;1736;52.068;6.968;2022-08-02T11:07:10;5.00;;;4.27;;
3443;SDS011;1736;52.068;6.968;2022-08-02T11:09:39;6.50;;;3.90;;
3443;SDS011;1736;52.068;6.968;2022-08-02T11:12:08;6.40;;;4.33;;
3443;SDS011;1736;52.068;6.968;2022-08-02T11:14:36;7.63;;;4.93;;
3443;SDS011;1736;52.068;6.968;2022-08-02T11:17:05;4.17;;;3.70;;
3443;SDS011;1736;52.068;6.968;2022-08-02T11:22:36;5.70;;;3.50;;
3443;SDS011;1736;52.068;6.968;2022-08-02T11:27:59;5.20;;;3.47;;
3443;SDS011;1736;52.068;6.968;2022-08-02T11:30:34;2.87;;;2.67;;
3443;SDS011;1736;52.068;6.968;2022-08-02T11:33:01;4.37;;;3.00;;
3443;SDS011;1736;52.068;6.968;2022-08-02T11:35:32;2.70;;;2.50;;
3443;SDS011;1736;52.068;6.968;2022-08-02T11:38:12;4.93;;;3.53;;
3443;SDS011;1736;52.068;6.968;2022-08-02T11:40:40;5.80;;;3.40;;
3443;SDS011;1736;52.068;6.968;2022-08-02T11:43:19;4.43;;;3.23;;
3443;SDS011;1736;52.068;6.968;2022-08-02T11:45:47;3.40;;;3.00;;
3443;SDS011;1736;52.068;6.968;2022-08-02T11:48:28;7.57;;;3.20;;
3443;SDS011;1736;52.068;6.968;2022-08-02T11:51:04;4.00;;;3.10;;
3443;SDS011;1736;52.068;6.968;2022-08-02T11:53:33;3.87;;;2.90;;
3443;SDS011;1736;52.068;6.968;2022-08-02T11:56:07;2.60;;;2.30;;
3443;SDS011;1736;52.068;6.968;2022-08-02T11:58:35;2.87;;;2.57;;
3443;SDS011;1736;52.068;6.968;2022-08-02T12:01:02;4.50;;;3.30;;
3443;SDS011;1736;52.068;6.968;2022-08-02T12:03:32;3.63;;;3.27;;
3443;SDS011;1736;52.068;6.968;2022-08-02T12:06:00;6.73;;;2.80;;
3443;SDS011;1736;52.068;6.968;2022-08-02T12:08:29;2.93;;;2.70;;
3443;SDS011;1736;52.068;6.968;2022-08-02T12:10:55;2.70;;;2.50;;
3443;SDS011;1736;52.068;6.968;2022-08-02T12:13:22;3.80;;;2.40;;
3443;SDS011;1736;52.068;6.968;2022-08-02T12:15:49;2.60;;;2.40;;
3443;SDS011;1736;52.068;6.968;2022-08-02T12:18:17;2.40;;;2.20;;
3443;SDS011;1736;52.068;6.968;2022-08-02T12:21:08;3.97;;;2.67;;
3443;SDS011;1736;52.068;6.968;2022-08-02T12:23:47;3.43;;;2.30;;
3443;SDS011;1736;52.068;6.968;2022-08-02T12:26:14;2.90;;;2.60;;
3443;SDS011;1736;52.068;6.968;2022-08-02T12:28:41;4.40;;;2.77;;
3443;SDS011;1736;52.068;6.968;2022-08-02T12:31:10;2.73;;;2.53;;
3443;SDS011;1736;52.068;6.968;2022-08-02T12:33:44;2.70;;;2.50;;
3443;SDS011;1736;52.068;6.968;2022-08-02T12:36:16;12.67;;;3.20;;
3443;SDS011;1736;52.068;6.968;2022-08-02T12:38:50;3.83;;;2.73;;
3443;SDS011;1736;52.068;6.968;2022-08-02T12:41:17;4.20;;;2.70;;
3443;SDS011;1736;52.068;6.968;2022-08-02T12:43:43;3.60;;;3.30;;
3443;SDS011;1736;52.068;6.968;2022-08-02T12:46:15;14.83;;;2.70;;
3443;SDS011;1736;52.068;6.968;2022-08-02T12:48:42;2.73;;;2.50;;
3443;SDS011;1736;52.068;6.968;2022-08-02T12:51:18;3.60;;;2.80;;
3443;SDS011;1736;52.068;6.968;2022-08-02T12:53:46;3.57;;;2.80;;
3443;SDS011;1736;52.068;6.968;2022-08-02T12:56:25;2.87;;;2.47;;
3443;SDS011;1736;52.068;6.968;2022-08-02T12:58:52;6.83;;;2.83;;
3443;SDS011;1736;52.068;6.968;2022-08-02T13:01:20;2.83;;;2.50;;
3443;SDS011;1736;52.068;6.968;2022-08-02T13:03:48;3.17;;;2.90;;
3443;SDS011;1736;52.068;6.968;2022-08-02T13:06:15;5.03;;;2.70;;
3443;SDS011;1736;52.068;6.968;2022-08-02T13:08:42;3.20;;;2.90;;
3443;SDS011;1736;52.068;6.968;2022-08-02T13:11:09;3.50;;;2.50;;
3443;SDS011;1736;52.068;6.968;2022-08-02T13:13:35;4.10;;;3.13;;
3443;SDS011;1736;52.068;6.968;2022-08-02T13:16:02;4.80;;;2.37;;
3443;SDS011;1736;52.068;6.968;2022-08-02T13:18:30;2.73;;;2.57;;
3443;SDS011;1736;52.068;6.968;2022-08-02T13:20:57;5.80;;;2.70;;
3443;SDS011;1736;52.068;6.968;2022-08-02T13:23:23;4.10;;;2.77;;
3443;SDS011;1736;52.068;6.968;2022-08-02T13:25:50;3.00;;;2.40;;
3443;SDS011;1736;52.068;6.968;2022-08-02T13:28:18;3.53;;;2.47;;
3443;SDS011;1736;52.068;6.968;2022-08-02T13:30:45;7.40;;;2.17;;
3443;SDS011;1736;52.068;6.968;2022-08-02T13:33:12;2.60;;;2.40;;
3443;SDS011;1736;52.068;6.968;2022-08-02T13:35:40;4.47;;;2.37;;
3443;SDS011;1736;52.068;6.968;2022-08-02T13:38:06;2.37;;;2.20;;
3443;SDS011;1736;52.068;6.968;2022-08-02T13:40:33;2.43;;;1.93;;
3443;SDS011;1736;52.068;6.968;2022-08-02T13:43:19;2.87;;;2.03;;
3443;SDS011;1736;52.068;6.968;2022-08-02T13:45:46;2.20;;;2.00;;
3443;SDS011;1736;52.068;6.968;2022-08-02T13:48:13;3.40;;;2.70;;
3443;SDS011;1736;52.068;6.968;2022-08-02T13:50:41;2.47;;;2.30;;
3443;SDS011;1736;52.068;6.968;2022-08-02T13:53:07;7.30;;;2.50;;
3443;SDS011;1736;52.068;6.968;2022-08-02T13:55:34;2.60;;;2.40;;
3443;SDS011;1736;52.068;6.968;2022-08-02T13:58:00;2.70;;;2.50;;
3443;SDS011;1736;52.068;6.968;2022-08-02T14:00:28;2.60;;;2.40;;
3443;SDS011;1736;52.068;6.968;2022-08-02T14:02:55;3.13;;;2.87;;
3443;SDS011;1736;52.068;6.968;2022-08-02T14:05:22;3.63;;;2.27;;
3443;SDS011;1736;52.068;6.968;2022-08-02T14:07:55;2.93;;;2.60;;
3443;SDS011;1736;52.068;6.968;2022-08-02T14:10:21;4.77;;;2.27;;
3443;SDS011;1736;52.068;6.968;2022-08-02T14:12:50;2.67;;;2.47;;
3443;SDS011;1736;52.068;6.968;2022-08-02T14:15:16;2.27;;;2.07;;
3443;SDS011;1736;52.068;6.968;2022-08-02T14:17:43;4.47;;;2.40;;
3443;SDS011;1736;52.068;6.968;2022-08-02T14:20:10;6.20;;;2.20;;
3443;SDS011;1736;52.068;6.968;2022-08-02T14:22:37;2.53;;;2.33;;
3443;SDS011;1736;52.068;6.968;2022-08-02T14:25:05;2.90;;;2.50;;
3443;SDS011;1736;52.068;6.968;2022-08-02T14:27:32;2.40;;;2.20;;
3443;SDS011;1736;52.068;6.968;2022-08-02T14:29:59;2.23;;;2.03;;
3443;SDS011;1736;52.068;6.968;2022-08-02T14:32:26;3.97;;;2.80;;
3443;SDS011;1736;52.068;6.968;2022-08-02T14:34:53;3.40;;;2.40;;
3443;SDS011;1736;52.068;6.968;2022-08-02T14:37:19;2.30;;;2.10;;
3443;SDS011;1736;52.068;6.968;2022-08-02T14:39:46;2.60;;;2.00;;
3443;SDS011;1736;52.068;6.968;2022-08-02T14:42:14;2.47;;;2.27;;
3443;SDS011;1736;52.068;6.968;2022-08-02T14:44:40;2.23;;;2.13;;
3443;SDS011;1736;52.068;6.968;2022-08-02T14:47:07;2.50;;;2.30;;
3443;SDS011;1736;52.068;6.968;2022-08-02T14:49:34;2.40;;;2.20;;
3443;SDS011;1736;52.068;6.968;2022-08-02T14:52:00;1.97;;;1.87;;
3443;SDS011;1736;52.068;6.968;2022-08-02T14:54:27;2.33;;;2.13;;
3443;SDS011;1736;52.068;6.968;2022-08-02T14:56:56;2.50;;;2.30;;
3443;SDS011;1736;52.068;6.968;2022-08-02T14:59:24;2.40;;;2.20;;
3443;SDS011;1736;52.068;6.968;2022-08-02T15:01:51;6.03;;;2.40;;
3443;SDS011;1736;52.068;6.968;2022-08-02T15:04:17;2.10;;;1.93;;
3443;SDS011;1736;52.068;6.968;2022-08-02T15:06:44;2.80;;;2.57;;
3443;SDS011;1736;52.068;6.968;2022-08-02T15:09:10;4.50;;;2.20;;
3443;SDS011;1736;52.068;6.968;2022-08-02T15:11:38;2.40;;;2.20;;
3443;SDS011;1736;52.068;6.968;2022-08-02T15:14:04;2.30;;;2.10;;
3443;SDS011;1736;52.068;6.968;2022-08-02T15:16:32;2.30;;;2.10;;
3443;SDS011;1736;52.068;6.968;2022-08-02T15:18:59;3.53;;;2.03;;
3443;SDS011;1736;52.068;6.968;2022-08-02T15:21:26;4.03;;;2.20;;
3443;SDS011;1736;52.068;6.968;2022-08-02T15:23:53;2.80;;;2.50;;
3443;SDS011;1736;52.068;6.968;2022-08-02T15:26:20;7.20;;;2.10;;
3443;SDS011;1736;52.068;6.968;2022-08-02T15:28:47;2.17;;;2.07;;
3443;SDS011;1736;52.068;6.968;2022-08-02T15:31:13;2.07;;;1.97;;
3443;SDS011;1736;52.068;6.968;2022-08-02T15:33:42;2.30;;;2.10;;